Time;durP1;ratioP1;P1;durP2;ratioP2;P2;SDS_P1;SDS_P2;PMS_P1;PMS_P2;Temp;Humidity;BMP_temperature;BMP_pressure;BME280_temperature;BME280_humidity;BME280_pressure;Samples;Min_cycle;Max_cycle;Signal;HPM_P1;HPM_P2
2021/07/10 00:00:37;;;;;;;10.23;9.33;;;;;;;17.48;88.71;96783.63;5013659;28;20201;-58
2021/07/10 00:03:04;;;;;;;9.27;8.47;;;;;;;17.52;88.61;96772.19;5018665;28;20175;-59
2021/07/10 00:05:29;;;;;;;9.00;8.30;;;;;;;17.76;87.35;96770.72;5033429;28;20921;-58
2021/07/10 00:07:55;;;;;;;10.83;9.57;;;;;;;17.86;87.37;96764.63;5033447;28;20458;-62
2021/07/10 00:10:20;;;;;;;9.83;8.93;;;;;;;17.92;87.08;96771.56;5033206;28;20168;-58
2021/07/10 00:12:46;;;;;;;9.50;8.80;;;;;;;17.71;88.53;96762.72;5032956;28;20230;-62
2021/07/10 00:15:16;;;;;;;9.53;8.73;;;;;;;17.72;88.21;96768.84;5032098;28;20286;-62
2021/07/10 00:17:41;;;;;;;9.93;9.00;;;;;;;17.76;88.63;96757.41;5026162;28;20181;-61
2021/07/10 00:20:08;;;;;;;11.20;10.20;;;;;;;17.88;87.86;96760.63;5013712;28;20455;-58
2021/07/10 00:22:34;;;;;;;10.63;9.73;;;;;;;17.92;87.97;96760.91;5013162;28;20679;-62
2021/07/10 00:24:59;;;;;;;10.00;9.20;;;;;;;17.98;87.40;96763.34;5013427;28;20477;-62
2021/07/10 00:27:26;;;;;;;10.87;9.90;;;;;;;17.79;88.19;96756.88;5013518;28;20172;-58
2021/07/10 00:29:52;;;;;;;10.00;9.03;;;;;;;17.99;87.36;96754.28;5013652;28;20219;-62
2021/07/10 00:32:17;;;;;;;10.23;9.43;;;;;;;18.04;87.57;96749.00;5018910;28;20931;-59
2021/07/10 00:34:43;;;;;;;8.73;7.83;;;;;;;18.11;86.98;96746.91;5032954;28;20674;-58
2021/07/10 00:37:08;;;;;;;9.30;8.60;;;;;;;18.19;86.83;96751.69;5033126;28;20247;-62
2021/07/10 00:39:33;;;;;;;9.30;8.50;;;;;;;18.23;86.45;96751.94;5027174;28;20181;-62
2021/07/10 00:41:59;;;;;;;9.37;8.57;;;;;;;18.22;85.96;96743.19;5013208;28;20209;-62
2021/07/10 00:44:24;;;;;;;8.73;7.93;;;;;;;18.30;85.84;96732.00;5015005;28;20550;-62
2021/07/10 00:46:49;;;;;;;9.40;8.60;;;;;;;18.30;85.30;96731.19;5017324;28;20180;-61
2021/07/10 00:49:15;;;;;;;9.70;9.00;;;;;;;18.31;85.05;96722.97;5017411;28;20252;-62
2021/07/10 00:51:40;;;;;;;8.33;7.63;;;;;;;18.32;84.74;96721.09;5016997;28;20642;-61
2021/07/10 00:54:05;;;;;;;9.60;8.57;;;;;;;18.33;84.38;96722.72;5017208;28;20250;-62
2021/07/10 00:56:31;;;;;;;8.90;8.17;;;;;;;18.34;84.52;96718.97;5017320;28;20631;-58
2021/07/10 00:58:58;;;;;;;9.70;8.90;;;;;;;18.30;84.76;96713.38;5017383;28;20180;-58
2021/07/10 01:01:25;;;;;;;9.17;8.33;;;;;;;18.30;84.62;96701.94;5020422;28;20203;-60
2021/07/10 01:03:51;;;;;;;9.13;8.23;;;;;;;18.29;84.25;96697.69;5021273;28;20439;-62
2021/07/10 01:06:16;;;;;;;8.70;8.00;;;;;;;18.28;84.17;96698.75;5034341;28;20429;-58
2021/07/10 01:08:42;;;;;;;8.83;8.13;;;;;;;18.25;84.09;96700.09;5036803;28;20750;-62
2021/07/10 01:11:09;;;;;;;8.77;7.97;;;;;;;18.24;84.30;96703.00;5035359;28;20634;-58
2021/07/10 01:13:34;;;;;;;9.10;8.40;;;;;;;18.21;84.38;96704.31;5036412;28;20188;-58
2021/07/10 01:16:00;;;;;;;9.00;8.30;;;;;;;18.20;84.17;96699.28;5036910;28;20791;-59
2021/07/10 01:18:25;;;;;;;9.23;8.47;;;;;;;18.17;84.41;96700.59;5036806;28;20203;-61
2021/07/10 01:20:54;;;;;;;8.90;8.10;;;;;;;18.18;84.38;96710.19;5023518;28;20212;-59
2021/07/10 01:23:21;;;;;;;8.53;7.77;;;;;;;18.16;84.17;96712.31;5015992;28;20518;-60
2021/07/10 01:25:47;;;;;;;8.50;7.90;;;;;;;18.12;84.30;96711.25;5014154;28;20429;-62
2021/07/10 01:28:14;;;;;;;8.60;8.00;;;;;;;18.11;84.58;96703.53;5016550;28;20416;-58
2021/07/10 01:30:40;;;;;;;8.97;8.27;;;;;;;18.11;84.24;96696.34;5016543;28;20412;-62
2021/07/10 01:33:06;;;;;;;8.80;8.07;;;;;;;18.13;84.27;96694.22;5020242;28;20422;-58
2021/07/10 01:35:32;;;;;;;17.10;8.83;;;;;;;18.05;83.95;96692.06;5036266;28;20901;-64
2021/07/10 01:37:59;;;;;;;8.90;8.20;;;;;;;18.06;84.19;96692.88;5036486;28;20410;-58
2021/07/10 01:40:25;;;;;;;8.50;7.80;;;;;;;18.04;83.87;96687.03;5034997;28;20207;-62
2021/07/10 01:42:52;;;;;;;9.90;9.00;;;;;;;18.05;83.51;96683.28;5035814;28;20406;-62
2021/07/10 01:45:20;;;;;;;8.77;7.97;;;;;;;18.01;83.62;96683.03;5035997;28;20659;-62
2021/07/10 01:47:45;;;;;;;9.60;8.30;;;;;;;18.05;83.58;96678.78;5034395;28;20419;-62
2021/07/10 01:50:11;;;;;;;9.67;8.87;;;;;;;18.04;83.80;96671.06;5036443;28;20464;-61
2021/07/10 01:52:38;;;;;;;9.10;8.47;;;;;;;17.95;83.89;96673.47;5035642;28;20172;-62
2021/07/10 01:55:06;;;;;;;9.37;8.67;;;;;;;17.81;84.69;96671.56;5035709;28;20192;-62
2021/07/10 01:57:31;;;;;;;9.60;8.80;;;;;;;17.82;84.77;96671.31;5035905;28;20913;-62
2021/07/10 01:59:57;;;;;;;9.30;8.60;;;;;;;17.83;84.87;96664.91;5034843;28;20505;-59
2021/07/10 02:02:23;;;;;;;9.23;8.53;;;;;;;17.87;84.49;96667.84;5030941;28;20184;-62
2021/07/10 02:04:51;;;;;;;9.20;8.43;;;;;;;17.88;84.13;96667.56;5035935;28;20199;-62
2021/07/10 02:07:17;;;;;;;9.50;8.60;;;;;;;17.91;84.14;96664.41;5035966;28;20184;-58
2021/07/10 02:09:43;;;;;;;9.23;8.53;;;;;;;17.87;84.18;96658.03;5035654;28;20773;-58
2021/07/10 02:12:14;;;;;;;9.50;8.70;;;;;;;17.88;84.28;96658.81;5035304;28;20418;-62
2021/07/10 02:14:39;;;;;;;9.17;8.47;;;;;;;17.79;84.48;96655.09;5035673;28;20431;-58
2021/07/10 02:17:05;;;;;;;9.50;8.60;;;;;;;17.74;84.63;96657.72;5025539;28;20929;-58
2021/07/10 02:19:31;;;;;;;8.67;8.07;;;;;;;17.79;83.86;96652.44;5015748;28;20180;-58
2021/07/10 02:21:57;;;;;;;9.37;8.57;;;;;;;17.69;84.24;96655.06;5025865;28;20426;-58
2021/07/10 02:24:22;;;;;;;8.30;7.70;;;;;;;17.45;84.96;96658.16;5035357;28;20499;-58
2021/07/10 02:26:47;;;;;;;8.97;8.17;;;;;;;17.62;84.33;96652.66;5035385;28;20183;-62
2021/07/10 02:29:13;;;;;;;8.50;7.90;;;;;;;17.59;84.63;96657.69;5035320;28;20176;-62
2021/07/10 02:31:38;;;;;;;7.47;6.87;;;;;;;17.54;85.19;96642.53;5022515;28;20226;-59
2021/07/10 02:34:04;;;;;;;9.80;9.00;;;;;;;17.60;85.10;96643.34;5015299;28;20713;-58
2021/07/10 02:36:30;;;;;;;9.47;8.77;;;;;;;17.71;84.58;96637.00;5015501;28;20545;-58
2021/07/10 02:38:56;;;;;;;9.27;8.47;;;;;;;17.74;84.52;96642.56;5014116;28;20172;-58
2021/07/10 02:41:21;;;;;;;9.40;8.60;;;;;;;17.62;85.14;96646.53;5015438;28;20513;-62
2021/07/10 02:43:46;;;;;;;9.30;8.50;;;;;;;17.58;85.08;96632.97;5014858;28;20195;-62
2021/07/10 02:46:12;;;;;;;10.87;10.00;;;;;;;17.69;84.87;96629.28;5025532;28;20176;-58
2021/07/10 02:48:38;;;;;;;8.90;7.87;;;;;;;17.68;85.12;96640.19;5035150;28;20179;-58
2021/07/10 02:51:04;;;;;;;9.23;8.50;;;;;;;17.71;84.85;96639.66;5034888;28;20171;-62
2021/07/10 02:53:29;;;;;;;8.83;8.10;;;;;;;17.68;85.33;96630.34;5034475;28;20192;-62
2021/07/10 02:55:55;;;;;;;9.40;8.60;;;;;;;17.72;85.16;96625.31;5034754;28;20464;-58
2021/07/10 02:58:20;;;;;;;8.80;8.10;;;;;;;17.75;84.66;96624.78;5034922;28;20180;-62
2021/07/10 03:00:45;;;;;;;9.00;8.30;;;;;;;17.70;84.76;96627.44;5034004;28;20230;-58
2021/07/10 03:03:11;;;;;;;8.00;7.40;;;;;;;17.72;84.30;96626.09;5034399;28;20262;-58
2021/07/10 03:05:37;;;;;;;8.17;7.47;;;;;;;17.71;84.26;96627.16;5034636;28;20172;-58
2021/07/10 03:08:04;;;;;;;9.40;8.50;;;;;;;17.67;83.91;96625.28;5034114;28;20172;-62
2021/07/10 03:10:30;;;;;;;8.13;7.43;;;;;;;17.65;84.24;96624.75;5033454;28;20570;-58
2021/07/10 03:12:57;;;;;;;9.00;8.20;;;;;;;17.61;84.22;96619.16;5034149;28;20418;-62
2021/07/10 03:15:23;;;;;;;9.20;8.50;;;;;;;17.60;84.26;96616.75;5026102;28;20452;-58
2021/07/10 03:17:49;;;;;;;7.73;7.07;;;;;;;17.52;84.03;96612.75;5015213;28;20416;-62
2021/07/10 03:20:17;;;;;;;9.10;8.40;;;;;;;17.59;83.66;96620.50;5014549;28;20497;-62
2021/07/10 03:22:42;;;;;;;8.70;8.10;;;;;;;17.60;83.72;96614.09;5014195;28;20431;-62
2021/07/10 03:25:10;;;;;;;8.93;8.23;;;;;;;17.55;83.92;96620.22;5014385;28;20819;-61
2021/07/10 03:27:35;;;;;;;9.70;8.80;;;;;;;17.47;84.51;96626.03;5014567;28;20176;-58
2021/07/10 03:30:05;;;;;;;8.70;7.97;;;;;;;17.47;84.34;96628.69;5021542;28;20418;-62
2021/07/10 03:32:31;;;;;;;9.43;8.73;;;;;;;17.44;84.42;96631.84;5033834;28;20177;-62
2021/07/10 03:34:56;;;;;;;9.27;8.47;;;;;;;17.42;84.50;96626.81;5033884;28;20529;-62
2021/07/10 03:37:21;;;;;;;9.20;8.40;;;;;;;17.40;84.63;96622.81;5034107;28;20199;-62
2021/07/10 03:39:47;;;;;;;9.23;8.53;;;;;;;17.35;84.77;96625.47;5034144;28;20172;-58
2021/07/10 03:42:12;;;;;;;9.00;8.20;;;;;;;17.35;84.49;96626.25;5033585;28;20179;-62
2021/07/10 03:44:38;;;;;;;8.43;7.57;;;;;;;17.34;84.40;96615.88;5027159;28;20205;-63
2021/07/10 03:47:03;;;;;;;8.70;8.00;;;;;;;17.32;84.56;96615.34;5014270;28;20172;-62
2021/07/10 03:49:29;;;;;;;9.07;8.37;;;;;;;17.33;84.28;96611.63;5014157;28;20525;-58
2021/07/10 03:51:54;;;;;;;9.27;8.57;;;;;;;17.36;83.79;96621.72;5013808;28;20265;-62
2021/07/10 03:54:20;;;;;;;8.60;7.80;;;;;;;17.26;84.04;96617.19;5014137;28;20200;-59
2021/07/10 03:56:45;;;;;;;7.63;6.97;;;;;;;17.25;83.99;96620.91;5013904;28;20572;-59
2021/07/10 03:59:11;;;;;;;8.60;7.90;;;;;;;17.26;83.56;96617.19;5015943;28;20173;-62
2021/07/10 04:01:36;;;;;;;8.30;7.60;;;;;;;17.25;84.12;96620.09;5033247;28;20218;-59
2021/07/10 04:04:02;;;;;;;8.77;7.87;;;;;;;17.23;84.12;96623.00;5033703;28;20583;-62
2021/07/10 04:06:29;;;;;;;8.27;7.60;;;;;;;17.20;83.92;96620.09;5033650;28;20527;-63
2021/07/10 04:08:54;;;;;;;9.63;8.87;;;;;;;17.15;84.25;96626.19;5017141;28;20482;-59
2021/07/10 04:11:20;;;;;;;9.33;8.43;;;;;;;17.18;84.28;96614.22;5014238;28;20408;-59
2021/07/10 04:13:45;;;;;;;9.20;8.17;;;;;;;17.18;84.58;96620.34;5013419;28;20275;-58
2021/07/10 04:16:11;;;;;;;8.10;7.50;;;;;;;17.12;84.97;96610.75;5013767;28;20180;-58
2021/07/10 04:18:37;;;;;;;9.00;8.30;;;;;;;17.13;85.30;96622.19;5012899;28;20207;-58
2021/07/10 04:21:04;;;;;;;9.77;9.00;;;;;;;17.15;85.26;96618.22;5013706;28;20537;-58
2021/07/10 04:23:30;;;;;;;9.37;8.60;;;;;;;17.20;84.86;96618.22;5027306;28;20446;-58
2021/07/10 04:25:55;;;;;;;9.37;8.63;;;;;;;17.19;85.21;96623.81;5033752;28;20407;-62
2021/07/10 04:28:20;;;;;;;9.60;8.80;;;;;;;17.21;85.33;96619.03;5033327;28;20184;-57
2021/07/10 04:30:46;;;;;;;9.10;8.40;;;;;;;17.14;85.78;96615.81;5033278;28;20627;-57
2021/07/10 04:33:11;;;;;;;10.90;10.00;;;;;;;17.19;86.01;96613.19;5032900;28;20200;-62
2021/07/10 04:35:37;;;;;;;8.87;8.20;;;;;;;17.25;85.70;96615.59;5033124;28;20266;-62
2021/07/10 04:38:02;;;;;;;10.47;9.60;;;;;;;17.26;86.10;96621.72;5020013;28;20268;-61
2021/07/10 04:40:28;;;;;;;10.27;9.37;;;;;;;17.31;86.37;96624.38;5013825;28;20193;-58
2021/07/10 04:42:54;;;;;;;11.10;10.10;;;;;;;17.34;86.63;96623.84;5013165;28;20207;-62
2021/07/10 04:45:19;;;;;;;10.77;9.87;;;;;;;17.35;87.24;96628.13;5013304;28;20184;-58
2021/07/10 04:47:45;;;;;;;10.40;9.50;;;;;;;17.33;87.31;96620.41;5013644;28;20408;-62
2021/07/10 04:50:12;;;;;;;11.17;10.23;;;;;;;17.45;87.30;96630.78;5013483;28;20191;-62
2021/07/10 04:52:40;;;;;;;12.33;11.20;;;;;;;17.47;87.26;96615.41;5024443;28;20176;-62
2021/07/10 04:55:05;;;;;;;11.37;10.37;;;;;;;17.49;87.26;96618.59;5027876;28;20438;-58
2021/07/10 04:57:31;;;;;;;12.60;11.40;;;;;;;17.51;87.70;96619.16;5013343;28;20408;-62
2021/07/10 04:59:56;;;;;;;12.07;11.00;;;;;;;17.58;88.20;96624.19;5013237;28;20551;-58
2021/07/10 05:02:21;;;;;;;12.23;11.17;;;;;;;17.62;88.39;96623.44;5012974;28;20196;-62
2021/07/10 05:04:47;;;;;;;11.03;10.20;;;;;;;17.65;88.06;96624.75;5013146;28;20271;-62
2021/07/10 05:07:12;;;;;;;12.60;11.30;;;;;;;17.68;88.90;96627.69;5023397;28;20635;-61
2021/07/10 05:09:38;;;;;;;10.93;10.03;;;;;;;17.72;89.05;96639.38;5032697;28;20665;-58
2021/07/10 05:12:04;;;;;;;12.77;11.70;;;;;;;17.71;89.87;96635.13;5016003;28;20177;-62
2021/07/10 05:14:29;;;;;;;13.17;12.10;;;;;;;17.85;89.31;96635.41;5013206;28;20185;-58
2021/07/10 05:16:54;;;;;;;12.90;11.90;;;;;;;17.90;89.60;96635.44;5013089;28;20628;-62
2021/07/10 05:19:20;;;;;;;13.67;12.57;;;;;;;18.03;89.36;96626.91;5013182;28;20183;-58
2021/07/10 05:21:45;;;;;;;12.10;11.10;;;;;;;18.04;89.69;96623.19;5012572;28;20196;-58
2021/07/10 05:24:11;;;;;;;11.80;10.80;;;;;;;18.07;89.88;96630.63;5012911;28;20602;-59
2021/07/10 05:26:36;;;;;;;12.00;11.00;;;;;;;18.11;89.91;96621.06;5028432;28;20187;-63
2021/07/10 05:29:05;;;;;;;11.97;11.07;;;;;;;18.20;89.64;96627.44;5032749;28;20581;-58
2021/07/10 05:31:30;;;;;;;12.90;11.70;;;;;;;18.19;90.05;96617.88;5035702;28;20238;-59
2021/07/10 05:33:56;;;;;;;12.30;11.00;;;;;;;18.11;90.59;96624.53;5029279;28;20953;-62
2021/07/10 05:36:21;;;;;;;11.73;10.83;;;;;;;18.17;91.16;96614.69;5016829;28;20184;-62
2021/07/10 05:38:46;;;;;;;13.40;12.20;;;;;;;18.24;90.41;96620.53;5016449;28;20243;-58
2021/07/10 05:41:12;;;;;;;11.93;11.00;;;;;;;18.25;90.24;96619.47;5016370;28;20204;-62
2021/07/10 05:43:37;;;;;;;12.07;11.07;;;;;;;18.14;90.96;96615.22;5016031;28;20193;-62
2021/07/10 05:46:03;;;;;;;10.70;9.90;;;;;;;18.36;90.23;96618.38;5016454;28;20203;-58
2021/07/10 05:48:28;;;;;;;11.37;10.57;;;;;;;18.20;90.74;96614.16;5020811;28;20172;-58
2021/07/10 05:50:53;;;;;;;11.43;10.43;;;;;;;18.37;91.02;96617.34;5036287;28;20634;-58
2021/07/10 05:53:19;;;;;;;12.10;10.90;;;;;;;18.51;90.67;96626.38;5035490;28;20200;-62
2021/07/10 05:55:44;;;;;;;11.00;10.07;;;;;;;18.65;90.10;96623.97;5025713;28;20287;-59
2021/07/10 05:58:11;;;;;;;11.57;10.57;;;;;;;18.70;89.88;96622.09;5024766;28;20664;-58
2021/07/10 06:00:37;;;;;;;11.30;10.30;;;;;;;18.76;90.11;96620.19;5035763;28;20542;-59
2021/07/10 06:03:02;;;;;;;11.40;10.33;;;;;;;18.73;90.52;96618.91;5034884;28;20476;-62
2021/07/10 06:05:28;;;;;;;11.17;10.27;;;;;;;18.84;90.37;96606.34;5035698;28;20662;-62
2021/07/10 06:07:54;;;;;;;10.57;9.60;;;;;;;18.86;90.10;96606.88;5035624;28;20615;-62
2021/07/10 06:10:21;;;;;;;11.80;10.80;;;;;;;18.81;90.85;96607.69;5035732;28;20332;-62
2021/07/10 06:12:46;;;;;;;11.50;10.50;;;;;;;18.97;90.37;96611.09;5034515;28;20430;-58
2021/07/10 06:15:12;;;;;;;9.47;8.77;;;;;;;19.06;89.66;96602.25;5035560;28;20457;-58
2021/07/10 06:17:39;;;;;;;10.10;9.20;;;;;;;18.79;88.93;96609.03;5034267;28;20187;-58
2021/07/10 06:20:07;;;;;;;8.87;8.17;;;;;;;18.71;90.14;96612.22;5035490;28;20454;-62
2021/07/10 06:22:33;;;;;;;8.73;8.10;;;;;;;19.01;88.73;96609.47;5035243;28;20766;-59
2021/07/10 06:24:59;;;;;;;7.97;7.37;;;;;;;18.85;85.56;96602.59;5035466;28;20427;-62
2021/07/10 06:27:24;;;;;;;8.70;7.90;;;;;;;18.65;83.46;96602.66;5028640;28;20185;-62
2021/07/10 06:29:49;;;;;;;7.47;6.93;;;;;;;18.56;84.28;96602.41;5015535;28;20270;-58
2021/07/10 06:32:15;;;;;;;7.60;7.00;;;;;;;18.76;84.16;96601.56;5015247;28;20208;-61
2021/07/10 06:34:40;;;;;;;8.00;7.30;;;;;;;18.94;84.99;96600.97;5015332;28;20204;-61
2021/07/10 06:37:06;;;;;;;7.30;6.70;;;;;;;19.00;84.03;96608.69;5015239;28;20188;-61
2021/07/10 06:39:31;;;;;;;7.13;6.60;;;;;;;18.83;83.49;96605.53;5015340;28;20693;-60
2021/07/10 06:41:57;;;;;;;7.80;7.20;;;;;;;18.79;84.30;96595.72;5018932;28;20208;-57
2021/07/10 06:44:22;;;;;;;6.27;5.77;;;;;;;19.12;83.16;96603.84;5034939;28;20196;-61
2021/07/10 06:46:48;;;;;;;7.93;7.23;;;;;;;18.78;83.21;96602.91;5035178;28;20246;-57
2021/07/10 06:49:13;;;;;;;7.13;6.63;;;;;;;19.16;82.45;96599.56;5035002;28;20247;-61
2021/07/10 06:51:40;;;;;;;7.80;7.20;;;;;;;19.40;83.09;96594.41;5034785;28;20173;-61
2021/07/10 06:54:06;;;;;;;7.80;7.20;;;;;;;19.46;83.60;96604.75;5035002;28;20228;-60
2021/07/10 06:56:31;;;;;;;7.60;7.00;;;;;;;19.42;83.60;96601.03;5021652;28;20511;-57
2021/07/10 06:58:57;;;;;;;7.70;7.10;;;;;;;19.23;81.25;96601.91;5035276;28;20226;-61
2021/07/10 07:01:22;;;;;;;6.77;6.13;;;;;;;19.36;81.07;96596.81;5014216;28;20244;-61
2021/07/10 07:03:48;;;;;;;7.30;6.67;;;;;;;19.41;81.68;96598.66;5014530;28;20615;-61
2021/07/10 07:06:13;;;;;;;7.53;6.90;;;;;;;19.46;82.41;96594.09;5014896;28;20248;-57
2021/07/10 07:08:38;;;;;;;6.67;6.07;;;;;;;19.74;81.51;96599.78;5015282;28;20169;-58
2021/07/10 07:11:04;;;;;;;7.07;6.57;;;;;;;19.91;82.06;96584.97;5014761;28;20564;-61
2021/07/10 07:13:29;;;;;;;6.80;6.30;;;;;;;19.86;81.07;96585.03;5014318;28;20200;-58
2021/07/10 07:15:54;;;;;;;6.90;6.50;;;;;;;19.99;81.52;96579.06;5029963;28;20180;-61
2021/07/10 07:18:20;;;;;;;6.13;5.73;;;;;;;20.16;81.62;96571.44;5015582;28;20209;-58
2021/07/10 07:20:45;;;;;;;7.43;6.80;;;;;;;19.78;79.67;96577.63;5010745;28;20288;-58
2021/07/10 07:23:11;;;;;;;7.07;6.57;;;;;;;19.97;78.95;96578.53;5010713;28;20176;-59
2021/07/10 07:25:37;;;;;;;6.87;6.33;;;;;;;19.84;79.60;96573.81;5011198;28;20591;-58
2021/07/10 07:28:03;;;;;;;7.27;6.70;;;;;;;19.59;81.33;96579.34;5011194;28;20173;-59
2021/07/10 07:30:28;;;;;;;7.03;6.53;;;;;;;19.84;80.02;96570.38;5011122;28;20176;-58
2021/07/10 07:32:54;;;;;;;6.33;5.90;;;;;;;20.02;80.14;96561.69;5012551;28;20627;-61
2021/07/10 07:35:20;;;;;;;6.73;6.23;;;;;;;20.25;81.28;96571.66;5019380;28;20570;-61
2021/07/10 07:37:47;;;;;;;6.60;6.10;;;;;;;20.36;79.05;96570.47;5030827;28;20282;-59
2021/07/10 07:40:17;;;;;;;6.50;6.00;;;;;;;20.55;80.63;96567.88;5030538;28;20450;-66
2021/07/10 07:42:43;;;;;;;6.97;6.47;;;;;;;20.52;78.50;96566.59;5028157;28;20755;-60
2021/07/10 07:45:10;;;;;;;6.83;6.33;;;;;;;20.46;75.36;96557.03;5010182;28;20534;-62
2021/07/10 07:47:37;;;;;;;5.80;5.40;;;;;;;20.58;76.72;96554.78;5010734;28;20435;-62
2021/07/10 07:50:04;;;;;;;5.70;5.20;;;;;;;20.74;77.41;96558.88;5018969;28;20840;-64
2021/07/10 07:52:30;;;;;;;5.80;5.30;;;;;;;20.70;74.62;96554.34;5033273;28;20885;-62
2021/07/10 07:54:55;;;;;;;5.80;5.40;;;;;;;20.65;74.11;96549.06;5030035;28;20489;-63
2021/07/10 07:57:20;;;;;;;8.00;7.40;;;;;;;20.59;76.53;96555.53;5014124;28;20196;-63
2021/07/10 07:59:46;;;;;;;7.00;6.50;;;;;;;20.59;76.81;96553.69;5014017;28;20614;-63
2021/07/10 08:02:12;;;;;;;7.93;7.13;;;;;;;20.71;76.97;96556.75;5020697;28;20176;-64
2021/07/10 08:04:37;;;;;;;7.30;6.60;;;;;;;21.00;77.31;96548.66;5022332;28;20529;-63
2021/07/10 08:07:03;;;;;;;5.40;5.10;;;;;;;21.18;77.72;96546.03;5013791;28;20227;-59
2021/07/10 08:09:29;;;;;;;5.40;5.03;;;;;;;20.95;74.43;96546.03;5013597;28;20599;-60
2021/07/10 08:11:56;;;;;;;5.60;5.20;;;;;;;21.29;75.05;96550.16;5013367;28;20446;-59
2021/07/10 08:14:22;;;;;;;4.87;4.57;;;;;;;21.43;72.60;96543.00;5013724;28;20431;-63
2021/07/10 08:16:48;;;;;;;6.20;5.70;;;;;;;21.56;73.35;96541.47;5013756;28;20417;-60
2021/07/10 08:19:13;;;;;;;5.83;5.50;;;;;;;21.74;73.90;96548.69;5015558;28;20176;-63
2021/07/10 08:21:39;;;;;;;7.33;4.90;;;;;;;21.86;73.34;96546.41;5013469;28;20458;-63
2021/07/10 08:24:05;;;;;;;5.80;5.40;;;;;;;21.98;72.08;96544.06;5013365;28;20193;-63
2021/07/10 08:26:31;;;;;;;5.53;5.13;;;;;;;21.90;68.53;96542.06;5013874;28;20168;-63
2021/07/10 08:28:56;;;;;;;6.00;5.60;;;;;;;21.74;68.85;96540.66;5014043;28;20414;-59
2021/07/10 08:31:22;;;;;;;5.90;5.50;;;;;;;21.46;70.39;96541.63;5024506;28;20179;-60
2021/07/10 08:33:47;;;;;;;8.43;6.57;;;;;;;21.72;72.80;96539.38;5032667;28;20192;-59
2021/07/10 08:36:13;;;;;;;6.00;5.60;;;;;;;21.94;73.23;96535.00;5033654;28;20686;-59
2021/07/10 08:38:39;;;;;;;5.97;5.47;;;;;;;22.12;72.92;96542.19;5029864;28;20175;-63
2021/07/10 08:41:08;;;;;;;5.40;5.10;;;;;;;22.21;73.08;96543.09;5013366;28;20663;-59
2021/07/10 08:43:34;;;;;;;5.97;5.57;;;;;;;22.08;70.63;96538.53;5013279;28;20188;-63
2021/07/10 08:46:03;;;;;;;6.67;5.60;;;;;;;22.09;67.74;96539.31;5012322;28;20792;-63
2021/07/10 08:48:29;;;;;;;6.47;4.90;;;;;;;22.28;69.14;96529.34;5013024;28;20408;-59
2021/07/10 08:50:57;;;;;;;5.40;5.00;;;;;;;22.39;70.36;96534.22;5021350;28;20446;-63
2021/07/10 08:53:22;;;;;;;6.50;5.00;;;;;;;22.54;70.48;96530.47;5013169;28;20895;-59
2021/07/10 08:55:50;;;;;;;5.77;5.37;;;;;;;22.60;71.31;96532.00;5013601;28;20412;-59
2021/07/10 08:58:16;;;;;;;5.27;4.87;;;;;;;22.80;71.07;96531.59;5013490;28;20538;-59
2021/07/10 09:00:42;;;;;;;5.90;5.40;;;;;;;22.91;71.27;96524.94;5012115;28;20527;-59
2021/07/10 09:03:12;;;;;;;5.50;5.10;;;;;;;23.00;68.93;96523.13;5013022;28;20891;-63
2021/07/10 09:05:39;;;;;;;4.50;4.20;;;;;;;22.97;67.55;96518.34;5016687;28;20707;-63
2021/07/10 09:08:19;;;;;;;4.60;4.30;;;;;;;23.10;68.85;96527.50;5021165;28;20431;-63
2021/07/10 09:10:49;;;;;;;5.27;4.77;;;;;;;23.17;68.19;96528.66;5033347;28;20434;-64
2021/07/10 09:13:16;;;;;;;5.07;4.67;;;;;;;23.35;67.66;96516.25;5032547;28;20450;-60
2021/07/10 09:15:42;;;;;;;4.30;4.00;;;;;;;23.43;68.64;96524.34;5016939;28;20408;-57
2021/07/10 09:18:08;;;;;;;5.13;4.60;;;;;;;23.51;66.50;96514.78;5017062;28;20917;-57
2021/07/10 09:20:35;;;;;;;4.20;3.90;;;;;;;23.56;63.42;96509.31;5022036;28;20666;-60
2021/07/10 09:23:01;;;;;;;4.07;3.80;;;;;;;23.57;66.03;96510.09;5036304;28;20411;-61
2021/07/10 09:25:29;;;;;;;5.27;4.47;;;;;;;23.68;65.25;96514.91;5030827;28;20805;-60
2021/07/10 09:27:56;;;;;;;5.23;4.73;;;;;;;23.72;65.52;96515.91;5016659;28;20169;-60
2021/07/10 09:30:36;;;;;;;4.67;4.27;;;;;;;23.55;61.07;96514.97;5016624;28;20400;-60
2021/07/10 09:33:16;;;;;;;3.97;3.67;;;;;;;23.47;62.12;96511.13;5016364;28;20404;-60
2021/07/10 09:35:51;;;;;;;4.90;3.73;;;;;;;23.65;63.63;96512.84;5016534;28;20427;-59
2021/07/10 09:38:22;;;;;;;4.40;4.10;;;;;;;23.41;60.68;96512.34;5016435;28;20410;-60
2021/07/10 09:41:10;;;;;;;3.97;3.70;;;;;;;23.62;60.35;96508.09;4996712;28;21021;-61
2021/07/10 09:43:38;;;;;;;4.20;3.90;;;;;;;23.42;58.60;96503.19;4996475;28;20516;-60
2021/07/10 09:46:06;;;;;;;4.07;3.73;;;;;;;23.66;62.27;96498.31;4996901;28;20502;-59
2021/07/10 09:48:40;;;;;;;4.53;3.97;;;;;;;23.85;62.59;96501.63;4996809;28;20449;-61
2021/07/10 09:51:24;;;;;;;4.43;4.03;;;;;;;23.48;59.41;96502.78;4996704;28;20432;-60
2021/07/10 09:54:07;;;;;;;3.87;3.63;;;;;;;23.02;59.31;96498.69;5004545;28;20521;-60
2021/07/10 09:56:35;;;;;;;4.33;3.70;;;;;;;23.60;62.62;96490.72;5016198;28;20502;-61
2021/07/10 09:59:17;;;;;;;3.83;3.30;;;;;;;23.74;62.21;96489.53;5018196;28;20469;-61
2021/07/10 10:01:43;;;;;;;3.67;3.37;;;;;;;23.63;58.74;96479.34;5027627;28;20508;-60
2021/07/10 10:04:29;;;;;;;4.13;3.83;;;;;;;23.94;62.04;96482.88;5015894;28;20510;-60
2021/07/10 10:06:56;;;;;;;3.80;3.50;;;;;;;24.25;61.90;96479.13;5016252;28;20183;-61
2021/07/10 10:09:28;;;;;;;4.37;4.00;;;;;;;24.25;60.02;96483.72;5015843;28;20510;-60
2021/07/10 10:11:57;;;;;;;3.77;3.57;;;;;;;24.42;60.59;96479.19;5015585;28;20420;-62
2021/07/10 10:14:25;;;;;;;4.10;3.80;;;;;;;24.69;61.37;96486.25;5016086;28;20511;-61
2021/07/10 10:16:50;;;;;;;3.03;2.83;;;;;;;24.78;59.09;96480.94;5014557;28;20416;-61
2021/07/10 10:19:19;;;;;;;3.80;3.60;;;;;;;24.92;59.72;96484.28;5015607;28;20427;-62
2021/07/10 10:21:47;;;;;;;3.73;3.50;;;;;;;24.97;58.00;96474.16;5015354;28;20255;-62
2021/07/10 10:24:13;;;;;;;3.90;3.70;;;;;;;25.04;55.53;96477.16;5015519;28;20842;-62
2021/07/10 10:26:41;;;;;;;3.70;3.40;;;;;;;25.16;58.96;96477.38;5015802;28;20946;-64
2021/07/10 10:29:08;;;;;;;4.00;3.70;;;;;;;25.36;61.63;96465.19;5015801;28;20420;-65
2021/07/10 10:31:39;;;;;;;4.20;3.90;;;;;;;25.52;58.44;96469.00;5015412;28;20415;-67
2021/07/10 10:34:06;;;;;;;3.40;3.20;;;;;;;25.60;59.09;96468.19;5015649;28;20442;-65
2021/07/10 10:36:35;;;;;;;3.90;3.20;;;;;;;25.56;55.51;96461.06;5015399;28;20411;-59
2021/07/10 10:39:01;;;;;;;3.27;3.07;;;;;;;25.55;54.66;96454.09;5016001;28;20499;-60
2021/07/10 10:41:27;;;;;;;3.20;3.00;;;;;;;25.63;54.13;96459.50;5015088;28;20505;-61
2021/07/10 10:43:55;;;;;;;4.10;3.70;;;;;;;25.48;53.88;96449.19;5027486;28;20450;-60
2021/07/10 10:46:24;;;;;;;4.07;3.77;;;;;;;25.70;55.87;96457.09;5034836;28;20494;-61
2021/07/10 10:48:51;;;;;;;3.70;3.50;;;;;;;25.78;54.60;96456.28;5035174;28;20881;-61
2021/07/10 10:51:34;;;;;;;3.60;3.40;;;;;;;25.71;55.34;96452.53;5034932;28;20407;-60
2021/07/10 10:54:17;;;;;;;3.40;3.20;;;;;;;25.60;50.88;96443.94;5035168;28;20434;-60
2021/07/10 10:56:44;;;;;;;3.73;3.50;;;;;;;25.70;54.42;96451.72;5031885;28;20410;-60
2021/07/10 10:59:27;;;;;;;3.73;3.20;;;;;;;25.89;53.08;96441.38;5031647;28;20457;-60
2021/07/10 11:01:54;;;;;;;3.27;2.63;;;;;;;25.99;49.76;96442.94;5031306;28;20525;-60
2021/07/10 11:04:55;;;;;;;4.40;3.23;;;;;;;26.24;52.47;96437.50;5014850;28;20431;-60
2021/07/10 11:07:28;;;;;;;3.37;3.17;;;;;;;26.28;52.75;96435.72;5003627;28;20426;-61
2021/07/10 11:10:02;;;;;;;3.23;3.03;;;;;;;26.26;50.73;96429.06;5014828;28;20844;-60
2021/07/10 11:12:46;;;;;;;3.47;3.27;;;;;;;26.24;53.54;96410.53;5016581;28;20486;-61
2021/07/10 11:15:35;;;;;;;3.80;3.50;;;;;;;26.50;55.17;96410.41;5031559;28;20447;-60
2021/07/10 11:18:03;;;;;;;3.30;3.10;;;;;;;26.55;49.71;96402.13;5014733;28;20854;-60
2021/07/10 11:20:48;;;;;;;3.57;3.30;;;;;;;26.57;48.92;96399.09;5014385;28;20857;-61
2021/07/10 11:23:35;;;;;;;3.50;3.20;;;;;;;26.76;52.69;96394.13;5014317;28;20446;-61
2021/07/10 11:26:04;;;;;;;3.37;3.13;;;;;;;26.95;52.07;96387.16;5014355;28;20408;-60
2021/07/10 11:28:37;;;;;;;2.73;2.63;;;;;;;26.85;48.55;96394.84;5014135;28;20423;-61
2021/07/10 11:31:06;;;;;;;10.63;4.00;;;;;;;26.90;49.05;96386.53;5014483;28;20408;-60